KNEW

Lakefront Airport

New Orleans, Louisiana, USA
METAR KNEW 212153Z AUTO 29013KT 9SM CLR 31/24 A2990 RMK AO2 SLP118 T03110244 $
Observed Flight Rules
Jun-21 @ 21:53 UTC (13 minutes ago) Visual Flight Rules
Wind Visibility Clouds
290° at 13 knots 9 miles
  • Clear skies
Temperatures Readings
Current 31°C / 88°F
Dewpoint 24°C / 75°F
Humidity 66%
Altimeter 29.9" Hg
Pressure 1011.8 hPa
Elevation 3
METAR KNEW 212153Z AUTO 29013KT 9SM CLR 31/24 A2990 RMK AO2 SLP118 T03110244 $
Observed Flight Rules
Jun-21 @ 21:53 UTC
(13 minutes ago)
VFR
Wind Visibility
290° at 13 knots 9 miles
Clouds
  • Clear skies
Temperature Dewpoint
31°C / 88°F 24°C / 75°F
Humidity Altimeter Pressure
66% 29.9" Hg 1011.8 hPa